Terminal Aerodrome Forecast
Issued by NWS

Home | Current Version | Previous Version | Text Only | Print | Product List | Glossary On
Versions: 1 2 3 4 5 6 7 8 9 10 11 12
000
FTUS42 KMLB 201700
TAFTIX
TAF
KTIX 201725Z 2018/2118 29008KT P6SM SCT040 SCT250
     FM202000 13007KT P6SM VCTS SCT050CB SCT250
     FM210200 VRB03KT P6SM FEW250
     FM211400 25007KT P6SM FEW040 FEW250=

USA.gov is the U.S. government's official web portal to all federal, state and local government web resources and services.